Flight Track Log - Related Links

Times and Time Zones

All times are in EDT time to prevent confusion due to time zone crossing. See the N328AJ flight status page for this flight to view local times or setup timezone preferences in your user account.

Time Position Orientation Groundspeed Altitude Reporting Facility
EDT Latitude Longitude Course Direction KTS MPH feet Rate Location/Type
Tue 11:12:35 AM 39.9939 -82.9086 14° North 187 215 1,100  Level Indianapolis Center
Tue 11:12:52 AM 39.9953 -82.9250 276° West 206 237 1,500 1,747 Climbing Indianapolis Center
Tue 11:13:54 AM 40.0417 -82.9497 338° Northwest 208 239 3,400 1,645 Climbing Indianapolis Center
Tue 11:14:56 AM 40.1011 -82.9611 352° North 211 243 4,900 1,403 Climbing Indianapolis Center
Tue 11:15:58 AM 40.1633 -82.9711 353° North 221 254 6,300 1,548 Climbing Indianapolis Center
Tue 11:17:00 AM 40.2381 -82.9683 North 224 258 8,100 1,645 Climbing Indianapolis Center
Tue 11:18:00 AM 40.6681 -82.9241 14° North  Level Estimated
Tue 11:18:02 AM 40.3022 -82.9708 358° North 228 262 9,700  Level Indianapolis Center
Tue 11:19:03 AM 40.3692 -82.9822 353° North 239 275 10,800 1,073 Climbing Indianapolis Center
Tue 11:20:05 AM 40.4394 -82.9894 356° North 251 289 11,900 1,065 Climbing Indianapolis Center
Tue 11:21:07 AM 40.5200 -83.0003 354° North 253 291 13,000 532 Climbing Indianapolis Center
Tue 11:22:09 AM 40.5972 -83.0103 354° North 268 308 13,000  Level Indianapolis Center
Tue 11:23:11 AM 40.6769 -83.0197 355° North 281 323 13,000  Level Indianapolis Center
Tue 11:24:12 AM 40.7569 -83.0025 North 285 328 13,000  Level Indianapolis Center
Tue 11:25:14 AM 40.8356 -82.9756 15° North 289 333 13,000  Level Indianapolis Center
Tue 11:26:16 AM 40.9144 -82.9497 14° North 288 331 13,000  Level Indianapolis Center
Tue 11:27:18 AM 40.9933 -82.9214 15° North 289 333 13,000 48 Level Indianapolis Center
Tue 11:28:20 AM 41.0700 -82.8939 15° North 285 328 13,100 49 Climbing Indianapolis Center
Tue 11:29:21 AM 41.1469 -82.8681 14° North 283 326 13,100  Level Indianapolis Center
Tue 11:30:23 AM 41.2236 -82.8411 15° North 282 325 13,100 -242 Level Indianapolis Center
Tue 11:31:25 AM 41.3125 -82.8097 15° North 281 323 12,600 -435 Descending Indianapolis Center
Tue 11:32:27 AM 41.3914 -82.7817 15° North 287 330 12,200 -439 Descending Indianapolis Center
Tue 11:33:28 AM 41.4706 -82.7542 15° North 290 334 11,700 -517 Descending Indianapolis Center
Tue 11:34:23 AM 41.5439 -82.7308 13° North 292 336 11,200 -539 Descending Cleveland Center
Tue 11:34:57 AM 41.5769 -82.7158 19° North 292 336 10,900 -615 Descending Cleveland Center
Tue 11:35:41 AM 41.6453 -82.6939 13° North 286 329 10,400 -590 Descending Cleveland Center
Tue 11:35:58 AM 41.6550 -82.6883 23° Northeast 285 328 10,300 -590 Descending Cleveland Center
Tue 11:36:42 AM 41.7228 -82.6647 15° North 279 321 9,800 -581 Descending Cleveland Center
Tue 11:37:00 AM 41.7303 -82.6614 18° North 281 323 9,700 -590 Descending Cleveland Center
Tue 11:37:43 AM 41.7981 -82.6661 357° North 280 322 9,200 -689 Descending Cleveland Center
Tue 11:38:01 AM 41.8211 -82.6731 347° North 283 326 9,000 -400 Descending Cleveland Center
Tue 11:38:43 AM 41.8728 -82.7008 338° Northwest 278 320 8,800 -484 Descending Cleveland Center
Tue 11:39:03 AM 41.8925 -82.7097 341° North 277 319 8,500 -1,164 Descending Cleveland Center
Tue 11:39:50 AM 41.9519 -82.7364 342° North 276 318 7,500 -1,180 Descending Cleveland Center
Tue 11:40:04 AM 41.9647 -82.7403 347° North 274 315 7,300 -1,161 Descending Cleveland Center
Tue 11:40:21 AM 41.9906 -82.7528 340° North 272 313 6,900 -1,258 Descending Cleveland Center
Tue 11:41:06 AM 42.0347 -82.7750 340° North 272 313 6,000 -1,231 Descending Cleveland Center
Tue 11:41:39 AM 42.0794 -82.7981 339° North 260 299 5,300 -1,279 Descending Cleveland Center
Tue 11:42:07 AM 42.1008 -82.8081 341° North 260 299 4,700 -1,377 Descending Cleveland Center
Tue 11:42:40 AM 42.1461 -82.8322 338° Northwest 261 300 3,900 -1,065 Descending Cleveland Center
Tue 11:43:09 AM 42.1686 -82.8414 343° North 260 299 3,600 -857 Descending Cleveland Center
Tue 11:43:29 AM 42.2028 -82.8567 342° North 255 293 3,200 -484 Descending Cleveland Center
Tue 11:44:11 AM 42.2344 -82.8728 339° North 255 293 3,100 -197 Descending Cleveland Center
Tue 11:44:30 AM 42.2653 -82.8903 337° Northwest 232 267 3,000  Descending Cleveland Center
Tue 11:45:12 AM 42.3039 -82.9075 342° North 231 266 3,100  Climbing Cleveland Center
Tue 11:45:18 AM 42.3117 -82.9136 330° Northwest 208 239 3,000 -968 Descending Cleveland Center
Tue 11:46:14 AM 42.3458 -82.9428 328° Northwest 194 223 2,100 -987 Descending Cleveland Center
Tue 11:46:37 AM 42.3628 -82.9600 323° Northwest 160 184 1,700 -787 Descending Cleveland Center
Tue 11:47:15 AM 42.3769 -82.9764 319° Northwest 168 193 1,300 -575 Descending Cleveland Center
Tue 11:47:50 AM 42.3939 -82.9922 325° Northwest 111 128 1,000 -290 Descending Cleveland Center
Tue 11:48:17 AM 42.4019 -82.9983 331° Northwest 149 171 1,000  Level Cleveland Center

Login

Don't have an account? Register now (free) for customized features, flight alerts, and more!